首页
METAR-TAF:

METAR-TAF

机场 :

巴格達國際機場

巴格达, 伊拉克

纬度: 33-15-45N, 经度: 44-14-04E, 海拔: 35米

当前天气观测

该预报发布于48分钟前的08:00 UTC
风速2节,风向多变
温度 11°C
湿度 71%
气压 1015 hPa
能见度10公里或以上
少量云层高于2500英尺

METAR: ORBI 180800Z VRB02KT 9999 FEW025 11/06 Q1015 NOSIG

时间: 11:48 (08:48 UTC)

预报

该预报发布于3小时和48分钟前的05:00 UTC
预报有效从18日的 06点(UTC)到 19日的 06点(UTC)
风速5节,风向
能見度: 5000
轻雾
短暂存在
从 18日的 05点(UTC)到 18日的 08点(UTC)
能見度: 2500
成为
从 18日的 09点(UTC)到 18日的 11点(UTC)
风速8节,风向西
能見度: 7000

TAF: ORBI 180500Z 1806/1906 17005KT 5000 BR NSC TEMPO 1805/1808 2500 BECMG 1809/1811 28008KT 7000 NSC

超过4000个机场的气象观测和天气预报(METAR&TAF报告)。

可查询的气象台以黄色和红色小点在地图上表示。

将鼠标移到小点上方,可查看气象台名称。

然后点击查看天气观测和预报。

如需切换地图:点击带黑十字的绿色按钮放大地图;点击带横线的绿色按钮缩小地图;或者点击绿色箭头查看邻近地区的地图。


METAR-TAF: